Terminal Aerodrome Forecast
Issued by NWS

Home | Current Version | Previous Version | Text Only | Print | Product List | Glossary On
Versions: 1 2 3 4 5 6 7 8 9 10 11 12 13 14 15 16 17 18 19 20 21 22 23 24 25 26 27
640
FTUS41 KBTV 090615 AAA
TAFSLK
TAF AMD
KSLK 090615Z 0906/1006 29009KT 2SM -SHSN BR SCT015 OVC025
      TEMPO 0906/0910 1SM -SN BR BKN018 OVC025
     FM091000 29010G19KT P6SM VCSH OVC015
     FM091500 30011G21KT P6SM VCSH OVC025
     FM092200 29011G20KT P6SM VCSH OVC035
     FM100300 30007KT P6SM BKN040=

USA.gov is the U.S. government's official web portal to all federal, state and local government web resources and services.